Time;durP1;ratioP1;P1;durP2;ratioP2;P2;SDS_P1;SDS_P2;PMS_P1;PMS_P2;Temp;Humidity;BMP_temperature;BMP_pressure;BME280_temperature;BME280_humidity;BME280_pressure;Samples;Min_cycle;Max_cycle;Signal;HPM_P1;HPM_P2
2022/09/10 00:02:12;;;;;;;;;9.00;5.50;;;;;;;;5119441;27;45212;-72
2022/09/10 00:04:37;;;;;;;;;3.25;3.25;;;;;;;;5119183;27;45380;-72
2022/09/10 00:07:03;;;;;;;;;10.00;6.00;;;;;;;;5118787;27;45439;-72
2022/09/10 00:09:28;;;;;;;;;6.25;4.50;;;;;;;;5116832;27;45600;-73
2022/09/10 00:11:53;;;;;;;;;7.67;6.00;;;;;;;;5117905;27;45401;-72
2022/09/10 00:14:20;;;;;;;;;5.00;5.00;;;;;;;;5118627;27;45310;-72
2022/09/10 00:16:45;;;;;;;;;8.50;5.00;;;;;;;;5118548;27;45353;-73
2022/09/10 00:19:11;;;;;;;;;4.00;4.00;;;;;;;;5118803;27;45373;-72
2022/09/10 00:21:36;;;;;;;;;4.75;4.75;;;;;;;;5118940;27;45476;-72
2022/09/10 00:24:02;;;;;;;;;4.00;4.00;;;;;;;;5118618;27;46272;-71
2022/09/10 00:26:29;;;;;;;;;9.75;5.50;;;;;;;;5118420;27;45481;-71
2022/09/10 00:28:55;;;;;;;;;3.75;3.00;;;;;;;;5118669;27;45429;-72
2022/09/10 00:31:20;;;;;;;;;7.00;3.50;;;;;;;;5117397;27;45619;-72
2022/09/10 00:33:46;;;;;;;;;3.75;2.75;;;;;;;;5118537;27;46325;-72
2022/09/10 00:36:25;;;;;;;;;7.00;4.50;;;;;;;;5118634;27;45303;-73
2022/09/10 00:38:51;;;;;;;;;4.25;4.00;;;;;;;;5118716;27;45374;-73
2022/09/10 00:41:17;;;;;;;;;4.25;3.50;;;;;;;;5118621;27;45407;-73
2022/09/10 00:43:55;;;;;;;;;5.00;4.00;;;;;;;;5118105;27;48073;-73
2022/09/10 00:46:26;;;;;;;;;5.00;3.00;;;;;;;;5113119;27;45532;-73
2022/09/10 00:48:54;;;;;;;;;5.25;5.00;;;;;;;;5097885;27;45340;-73
2022/09/10 00:51:20;;;;;;;;;5.75;3.50;;;;;;;;5098135;27;45419;-73
2022/09/10 00:53:45;;;;;;;;;3.75;3.75;;;;;;;;5097816;27;45394;-73
2022/09/10 00:56:11;;;;;;;;;5.75;5.75;;;;;;;;5098078;27;45427;-73
2022/09/10 00:58:36;;;;;;;;;4.00;4.00;;;;;;;;5098074;27;45287;-72
2022/09/10 01:01:02;;;;;;;;;5.00;2.50;;;;;;;;5097872;27;45374;-73
2022/09/10 01:03:28;;;;;;;;;3.00;3.00;;;;;;;;5097409;27;45625;-73
2022/09/10 01:05:54;;;;;;;;;5.25;4.00;;;;;;;;5097818;27;45272;-73
2022/09/10 01:08:19;;;;;;;;;5.00;4.00;;;;;;;;5097461;27;45483;-72
2022/09/10 01:11:03;;;;;;;;;5.00;3.25;;;;;;;;5098215;27;45417;-72
2022/09/10 01:13:34;;;;;;;;;4.25;3.75;;;;;;;;5097562;27;46363;-74
2022/09/10 01:16:11;;;;;;;;;10.00;7.50;;;;;;;;5097252;27;45469;-73
2022/09/10 01:18:37;;;;;;;;;3.25;3.25;;;;;;;;5097487;27;45445;-73
2022/09/10 01:21:15;;;;;;;;;7.25;4.00;;;;;;;;5097327;27;46906;-73
2022/09/10 01:23:46;;;;;;;;;4.00;3.00;;;;;;;;5100969;27;46777;-73
2022/09/10 01:26:18;;;;;;;;;16.33;13.33;;;;;;;;5100916;27;45359;-72
2022/09/10 01:28:43;;;;;;;;;4.00;3.00;;;;;;;;5100883;27;45237;-72
2022/09/10 01:31:13;;;;;;;;;2.50;2.50;;;;;;;;5101053;27;45925;-73
2022/09/10 01:33:46;;;;;;;;;3.00;3.00;;;;;;;;5100720;27;45429;-73
2022/09/10 01:36:15;;;;;;;;;5.50;3.50;;;;;;;;5100714;27;45243;-73
2022/09/10 01:38:41;;;;;;;;;8.25;4.25;;;;;;;;5100758;27;45367;-72
2022/09/10 01:41:06;;;;;;;;;5.75;3.25;;;;;;;;5100778;27;45414;-71
2022/09/10 01:43:32;;;;;;;;;2.00;2.00;;;;;;;;5100706;27;46332;-72
2022/09/10 01:46:03;;;;;;;;;3.00;3.00;;;;;;;;5100265;27;45457;-73
2022/09/10 01:48:31;;;;;;;;;3.50;3.25;;;;;;;;5100721;27;45284;-73
2022/09/10 01:51:09;;;;;;;;;4.75;3.50;;;;;;;;5101036;27;45421;-73
2022/09/10 01:53:46;;;;;;;;;4.00;3.00;;;;;;;;5099891;27;45293;-73
2022/09/10 01:56:11;;;;;;;;;3.00;3.00;;;;;;;;5100358;27;45222;-72
2022/09/10 01:58:37;;;;;;;;;3.50;3.50;;;;;;;;5100426;27;45215;-74
2022/09/10 02:01:11;;;;;;;;;7.50;4.00;;;;;;;;5100396;27;45716;-73
2022/09/10 02:03:38;;;;;;;;;5.50;3.75;;;;;;;;5100342;27;45443;-72
2022/09/10 02:06:06;;;;;;;;;5.25;3.75;;;;;;;;5099075;27;45311;-72
2022/09/10 02:08:33;;;;;;;;;3.50;2.00;;;;;;;;5079865;28;45305;-73
2022/09/10 02:11:01;;;;;;;;;2.00;2.00;;;;;;;;5079393;27;45356;-73
2022/09/10 02:13:28;;;;;;;;;3.75;2.75;;;;;;;;5079568;28;46259;-73
2022/09/10 02:15:55;;;;;;;;;4.00;2.75;;;;;;;;5079807;28;45364;-72
2022/09/10 02:18:21;;;;;;;;;3.75;3.75;;;;;;;;5079598;28;45387;-73
2022/09/10 02:20:48;;;;;;;;;3.50;2.75;;;;;;;;5080086;28;45368;-73
2022/09/10 02:23:17;;;;;;;;;3.00;3.00;;;;;;;;5079416;28;45550;-73
2022/09/10 02:25:42;;;;;;;;;4.00;4.00;;;;;;;;5078610;27;45412;-73
2022/09/10 02:28:08;;;;;;;;;4.50;4.25;;;;;;;;5079695;28;45252;-73
2022/09/10 02:30:34;;;;;;;;;3.50;3.25;;;;;;;;5079727;28;45267;-73
2022/09/10 02:32:59;;;;;;;;;8.25;3.25;;;;;;;;5078226;28;46757;-75
2022/09/10 02:35:24;;;;;;;;;4.00;2.75;;;;;;;;5079441;28;45416;-74
2022/09/10 02:37:49;;;;;;;;;3.00;3.00;;;;;;;;5079514;28;45393;-73
2022/09/10 02:40:18;;;;;;;;;5.00;3.00;;;;;;;;5079946;28;45606;-74
2022/09/10 02:42:45;;;;;;;;;3.75;3.00;;;;;;;;5078749;27;45403;-74
2022/09/10 02:45:11;;;;;;;;;3.50;3.50;;;;;;;;5079421;28;45503;-75
2022/09/10 02:47:37;;;;;;;;;3.50;3.25;;;;;;;;5078456;28;45319;-74
2022/09/10 02:50:02;;;;;;;;;4.00;4.00;;;;;;;;5079346;28;45353;-73
2022/09/10 02:52:28;;;;;;;;;3.00;3.00;;;;;;;;5079048;28;47531;-73
2022/09/10 02:54:53;;;;;;;;;4.50;3.00;;;;;;;;5078964;28;45243;-74
2022/09/10 02:57:18;;;;;;;;;7.50;6.25;;;;;;;;5079314;28;45404;-74
2022/09/10 02:59:43;;;;;;;;;4.75;3.25;;;;;;;;5079288;28;45452;-73
2022/09/10 03:02:09;;;;;;;;;6.00;3.50;;;;;;;;5097526;27;47198;-74
2022/09/10 03:04:34;;;;;;;;;5.75;5.75;;;;;;;;5099615;27;45341;-75
2022/09/10 03:06:59;;;;;;;;;5.50;3.75;;;;;;;;5099465;27;45390;-74
2022/09/10 03:09:27;;;;;;;;;4.00;4.00;;;;;;;;5099620;27;45207;-74
2022/09/10 03:11:52;;;;;;;;;11.75;4.25;;;;;;;;5099219;27;47590;-74
2022/09/10 03:14:21;;;;;;;;;5.00;5.00;;;;;;;;5099119;27;45527;-74
2022/09/10 03:16:46;;;;;;;;;6.25;4.50;;;;;;;;5098358;27;45275;-75
2022/09/10 03:19:12;;;;;;;;;5.25;5.00;;;;;;;;5098876;27;45418;-75
2022/09/10 03:21:40;;;;;;;;;5.00;5.00;;;;;;;;5098995;27;46364;-73
2022/09/10 03:24:05;;;;;;;;;4.00;4.00;;;;;;;;5099029;27;45472;-74
2022/09/10 03:26:30;;;;;;;;;5.25;5.00;;;;;;;;5098871;27;45323;-74
2022/09/10 03:28:56;;;;;;;;;3.75;3.75;;;;;;;;5099528;27;45397;-73
2022/09/10 03:31:21;;;;;;;;;12.00;10.67;;;;;;;;5098855;27;45458;-74
2022/09/10 03:33:46;;;;;;;;;21.00;21.00;;;;;;;;5108920;27;45520;-74
2022/09/10 03:36:14;;;;;;;;;8.33;4.67;;;;;;;;5119725;27;45324;-74
2022/09/10 03:38:39;;;;;;;;;4.50;2.00;;;;;;;;5119382;27;45449;-74
2022/09/10 03:41:05;;;;;;;;;5.50;5.50;;;;;;;;5119426;27;47342;-73
2022/09/10 03:43:30;;;;;;;;;8.00;4.25;;;;;;;;5119121;27;45382;-75
2022/09/10 03:45:55;;;;;;;;;5.75;4.00;;;;;;;;5119297;27;45782;-74
2022/09/10 03:48:21;;;;;;;;;7.00;5.25;;;;;;;;5119558;27;45287;-73
2022/09/10 03:50:48;;;;;;;;;5.00;3.75;;;;;;;;5118066;27;45840;-74
2022/09/10 03:53:14;;;;;;;;;3.00;3.00;;;;;;;;5119299;27;45216;-74
2022/09/10 03:55:41;;;;;;;;;8.67;5.67;;;;;;;;5119446;27;45405;-74
2022/09/10 03:58:07;;;;;;;;;4.75;4.75;;;;;;;;5119435;27;45380;-74
2022/09/10 04:00:32;;;;;;;;;10.00;4.00;;;;;;;;5119260;27;45512;-73
2022/09/10 04:02:57;;;;;;;;;7.75;6.25;;;;;;;;5118788;27;45387;-74
2022/09/10 04:05:24;;;;;;;;;5.75;5.75;;;;;;;;5119414;27;45221;-73
2022/09/10 04:07:50;;;;;;;;;10.00;5.75;;;;;;;;5098555;27;45356;-73
2022/09/10 04:10:15;;;;;;;;;9.50;4.75;;;;;;;;5098228;27;47463;-74
2022/09/10 04:12:40;;;;;;;;;8.75;8.25;;;;;;;;5098348;27;45461;-74
2022/09/10 04:15:06;;;;;;;;;8.50;5.75;;;;;;;;5098460;27;45315;-73
2022/09/10 04:17:31;;;;;;;;;4.00;4.00;;;;;;;;5098325;27;45314;-71
2022/09/10 04:19:56;;;;;;;;;8.50;7.25;;;;;;;;5100163;27;45465;-72
2022/09/10 04:22:21;;;;;;;;;9.00;6.00;;;;;;;;5097767;27;45422;-71
2022/09/10 04:24:47;;;;;;;;;5.00;4.50;;;;;;;;5103637;27;45323;-73
2022/09/10 04:27:12;;;;;;;;;8.33;8.33;;;;;;;;5118756;27;45308;-73
2022/09/10 04:29:37;;;;;;;;;7.67;6.33;;;;;;;;5118665;27;47231;-73
2022/09/10 04:32:03;;;;;;;;;7.67;7.33;;;;;;;;5118716;27;45353;-73
2022/09/10 04:34:28;;;;;;;;;5.00;4.25;;;;;;;;5118593;27;45236;-73
2022/09/10 04:36:53;;;;;;;;;9.00;7.00;;;;;;;;5113694;27;45371;-74
2022/09/10 04:39:18;;;;;;;;;9.00;7.33;;;;;;;;5097649;27;46573;-73
2022/09/10 04:41:44;;;;;;;;;14.67;8.33;;;;;;;;5098101;27;45321;-74
2022/09/10 04:44:09;;;;;;;;;8.00;8.00;;;;;;;;5097945;27;45430;-74
2022/09/10 04:46:35;;;;;;;;;8.33;8.33;;;;;;;;5098347;27;45232;-75
2022/09/10 04:49:00;;;;;;;;;8.25;5.75;;;;;;;;5097362;27;47188;-73
2022/09/10 04:51:25;;;;;;;;;8.00;5.75;;;;;;;;5097759;27;45877;-73
2022/09/10 04:53:51;;;;;;;;;6.50;4.50;;;;;;;;5110847;27;45505;-75
2022/09/10 04:56:17;;;;;;;;;7.33;5.00;;;;;;;;5118970;27;45643;-73
2022/09/10 04:58:42;;;;;;;;;9.67;8.33;;;;;;;;5122143;27;46291;-73
2022/09/10 05:01:08;;;;;;;;;8.25;5.50;;;;;;;;5121519;27;45474;-73
2022/09/10 05:03:33;;;;;;;;;9.67;9.00;;;;;;;;5105828;27;45766;-74
2022/09/10 05:05:58;;;;;;;;;8.33;8.33;;;;;;;;5101637;27;45310;-75
2022/09/10 05:08:23;;;;;;;;;10.00;7.33;;;;;;;;5100845;27;45390;-74
2022/09/10 05:10:48;;;;;;;;;7.33;7.33;;;;;;;;5101362;27;45318;-75
2022/09/10 05:13:14;;;;;;;;;8.67;7.67;;;;;;;;5101244;27;45299;-74
2022/09/10 05:15:40;;;;;;;;;8.67;8.00;;;;;;;;5101213;27;45481;-74
2022/09/10 05:18:06;;;;;;;;;10.00;8.67;;;;;;;;5100769;27;47514;-75
2022/09/10 05:20:31;;;;;;;;;8.67;8.67;;;;;;;;5106465;27;45439;-74
2022/09/10 05:22:57;;;;;;;;;8.00;5.00;;;;;;;;5121762;27;45157;-75
2022/09/10 05:25:23;;;;;;;;;10.33;9.67;;;;;;;;5121809;27;45579;-75
2022/09/10 05:27:50;;;;;;;;;8.00;5.50;;;;;;;;5121322;27;47308;-75
2022/09/10 05:30:15;;;;;;;;;6.00;5.00;;;;;;;;5121518;27;45304;-75
2022/09/10 05:32:41;;;;;;;;;9.67;8.33;;;;;;;;5121012;27;45358;-75
2022/09/10 05:35:06;;;;;;;;;10.00;9.00;;;;;;;;5121708;27;45430;-75
2022/09/10 05:37:32;;;;;;;;;11.00;9.00;;;;;;;;5121177;27;45965;-74
2022/09/10 05:39:58;;;;;;;;;12.67;11.33;;;;;;;;5121288;27;45381;-75
2022/09/10 05:42:23;;;;;;;;;17.00;11.33;;;;;;;;5121704;27;45372;-74
2022/09/10 05:44:49;;;;;;;;;10.67;10.67;;;;;;;;5106972;27;45505;-75
2022/09/10 05:47:14;;;;;;;;;11.33;11.00;;;;;;;;5100509;27;46252;-74
2022/09/10 05:49:40;;;;;;;;;14.00;12.33;;;;;;;;5100267;27;45277;-74
2022/09/10 05:52:05;;;;;;;;;19.00;16.67;;;;;;;;5100800;27;45374;-74
2022/09/10 05:54:30;;;;;;;;;15.67;15.67;;;;;;;;5100974;27;45384;-73
2022/09/10 05:56:57;;;;;;;;;14.00;13.33;;;;;;;;5100311;27;46622;-74
2022/09/10 05:59:22;;;;;;;;;14.33;12.00;;;;;;;;5100427;27;45286;-73
2022/09/10 06:01:50;;;;;;;;;17.00;11.00;;;;;;;;5100301;27;45858;-73
2022/09/10 06:04:15;;;;;;;;;11.67;10.67;;;;;;;;5100359;27;45429;-73
2022/09/10 06:06:40;;;;;;;;;13.67;12.00;;;;;;;;5100892;27;46181;-74
2022/09/10 06:09:05;;;;;;;;;12.00;10.33;;;;;;;;5098813;27;45436;-73
2022/09/10 06:11:31;;;;;;;;;16.67;13.67;;;;;;;;5100626;27;45402;-74
2022/09/10 06:13:56;;;;;;;;;14.33;14.33;;;;;;;;5099933;27;45401;-73
2022/09/10 06:16:22;;;;;;;;;18.67;15.00;;;;;;;;5099777;27;46199;-74
2022/09/10 06:18:47;;;;;;;;;18.00;15.67;;;;;;;;5099975;27;45422;-74
2022/09/10 06:21:14;;;;;;;;;19.00;15.00;;;;;;;;5102007;27;45295;-74
2022/09/10 06:23:39;;;;;;;;;17.33;13.67;;;;;;;;5120931;27;45322;-74
2022/09/10 06:26:09;;;;;;;;;20.00;15.33;;;;;;;;5120264;27;47371;-74
2022/09/10 06:28:34;;;;;;;;;14.33;12.33;;;;;;;;5120268;27;45306;-74
2022/09/10 06:31:00;;;;;;;;;15.33;15.33;;;;;;;;5120799;27;45269;-74
2022/09/10 06:33:25;;;;;;;;;13.00;12.00;;;;;;;;5120858;27;45263;-73
2022/09/10 06:35:54;;;;;;;;;22.00;18.67;;;;;;;;5120212;27;46674;-73
2022/09/10 06:38:20;;;;;;;;;22.33;17.67;;;;;;;;5119083;27;45445;-73
2022/09/10 06:40:53;;;;;;;;;23.67;18.67;;;;;;;;5120432;27;45318;-74
2022/09/10 06:43:18;;;;;;;;;19.67;17.33;;;;;;;;5120510;27;45430;-74
2022/09/10 06:45:43;;;;;;;;;22.00;19.33;;;;;;;;5120065;27;45365;-74
2022/09/10 06:48:09;;;;;;;;;21.00;18.00;;;;;;;;5120083;27;45609;-74
2022/09/10 06:50:35;;;;;;;;;29.33;23.33;;;;;;;;5120164;27;45318;-74
2022/09/10 06:53:01;;;;;;;;;19.33;19.00;;;;;;;;5120345;27;45304;-75
2022/09/10 06:55:26;;;;;;;;;19.67;18.00;;;;;;;;5101859;27;46214;-74
2022/09/10 06:57:51;;;;;;;;;16.00;15.67;;;;;;;;5108910;27;45422;-75
2022/09/10 07:00:16;;;;;;;;;14.33;13.33;;;;;;;;5119862;27;45273;-75
2022/09/10 07:02:42;;;;;;;;;14.33;13.67;;;;;;;;5120096;27;45305;-75
2022/09/10 07:05:07;;;;;;;;;22.67;16.33;;;;;;;;5119310;27;45754;-76
2022/09/10 07:07:32;;;;;;;;;11.33;11.33;;;;;;;;5119650;27;45401;-77
2022/09/10 07:09:57;;;;;;;;;17.67;15.67;;;;;;;;5119442;27;45335;-77
2022/09/10 07:12:22;;;;;;;;;24.33;18.33;;;;;;;;5119947;27;45390;-74
2022/09/10 07:14:48;;;;;;;;;21.67;19.00;;;;;;;;5102833;27;45364;-76
2022/09/10 07:17:13;;;;;;;;;23.67;18.00;;;;;;;;5099315;27;45259;-75
2022/09/10 07:19:38;;;;;;;;;20.33;16.67;;;;;;;;5098841;27;45275;-75
2022/09/10 07:22:03;;;;;;;;;18.33;15.33;;;;;;;;5099559;27;45720;-74
2022/09/10 07:24:29;;;;;;;;;23.33;20.67;;;;;;;;5113681;27;46422;-73
2022/09/10 07:26:56;;;;;;;;;19.67;18.00;;;;;;;;5119469;27;45376;-77
2022/09/10 07:29:22;;;;;;;;;24.33;23.67;;;;;;;;5119694;27;45414;-74
2022/09/10 07:31:47;;;;;;;;;16.33;14.67;;;;;;;;5120162;27;45326;-78
2022/09/10 07:34:13;;;;;;;;;20.33;18.00;;;;;;;;5110289;27;45676;-76
2022/09/10 07:36:38;;;;;;;;;22.67;19.67;;;;;;;;5098544;27;45312;-76
2022/09/10 07:39:03;;;;;;;;;23.00;20.33;;;;;;;;5098995;27;45739;-71
2022/09/10 07:41:29;;;;;;;;;27.00;21.33;;;;;;;;5098688;27;45178;-75
2022/09/10 07:43:55;;;;;;;;;19.33;16.00;;;;;;;;5114509;27;47182;-75
2022/09/10 07:46:21;;;;;;;;;20.00;18.00;;;;;;;;5098193;27;45465;-82
2022/09/10 07:48:47;;;;;;;;;21.33;21.33;;;;;;;;5098527;27;45319;-75
2022/09/10 07:51:16;;;;;;;;;25.33;21.67;;;;;;;;5098418;27;45262;-79
2022/09/10 07:53:42;;;;;;;;;20.67;16.67;;;;;;;;5098419;27;46530;-74
2022/09/10 07:56:07;;;;;;;;;19.33;14.67;;;;;;;;5098478;27;45470;-72
2022/09/10 07:58:34;;;;;;;;;21.33;20.33;;;;;;;;5098592;27;45327;-73
2022/09/10 08:01:01;;;;;;;;;23.33;20.00;;;;;;;;5098535;27;45245;-74
2022/09/10 08:03:26;;;;;;;;;26.33;23.33;;;;;;;;5098255;27;45490;-77
2022/09/10 08:05:52;;;;;;;;;20.00;19.67;;;;;;;;5098313;27;45420;-83
2022/09/10 08:08:18;;;;;;;;;21.67;16.33;;;;;;;;5098375;27;45402;-80
2022/09/10 08:10:44;;;;;;;;;24.67;23.67;;;;;;;;5098445;27;45516;-73
2022/09/10 08:13:09;;;;;;;;;18.67;16.67;;;;;;;;5097844;27;45348;-74
2022/09/10 08:15:34;;;;;;;;;21.67;17.67;;;;;;;;5098324;27;45466;-76
2022/09/10 08:18:00;;;;;;;;;21.33;17.00;;;;;;;;5105330;27;45422;-77
2022/09/10 08:20:25;;;;;;;;;26.33;21.00;;;;;;;;5118623;27;45523;-76
2022/09/10 08:22:51;;;;;;;;;20.00;16.33;;;;;;;;5111703;27;47158;-76
2022/09/10 08:25:17;;;;;;;;;19.67;19.67;;;;;;;;5098136;27;45645;-81
2022/09/10 08:27:42;;;;;;;;;24.33;22.00;;;;;;;;5098327;27;45315;-79
2022/09/10 08:30:07;;;;;;;;;17.67;16.67;;;;;;;;5098349;27;45346;-77
2022/09/10 08:32:33;;;;;;;;;24.67;24.00;;;;;;;;5096887;27;46291;-78
2022/09/10 08:34:58;;;;;;;;;21.00;15.33;;;;;;;;5109610;27;45530;-76
2022/09/10 08:37:24;;;;;;;;;21.00;15.67;;;;;;;;5097700;27;45430;-77
2022/09/10 08:39:49;;;;;;;;;18.00;14.00;;;;;;;;5108310;27;45306;-76
2022/09/10 08:42:25;;;;;;;;;15.00;14.00;;;;;;;;5118354;27;46286;-80
2022/09/10 08:44:53;;;;;;;;;13.67;13.67;;;;;;;;5118322;27;45395;-77
2022/09/10 08:47:20;;;;;;;;;23.33;17.33;;;;;;;;5118633;27;45456;-74
2022/09/10 08:49:50;;;;;;;;;20.67;18.33;;;;;;;;5118370;27;45190;-80
2022/09/10 08:52:34;;;;;;;;;22.67;19.33;;;;;;;;5117807;27;45378;-76
2022/09/10 08:55:08;;;;;;;;;22.67;17.00;;;;;;;;5115860;27;45298;-75
2022/09/10 08:57:44;;;;;;;;;17.33;15.00;;;;;;;;5117524;27;45536;-76
2022/09/10 09:00:13;;;;;;;;;20.67;17.33;;;;;;;;5115382;27;45515;-77
2022/09/10 09:03:01;;;;;;;;;17.33;16.33;;;;;;;;5096905;27;46658;-74
2022/09/10 09:05:28;;;;;;;;;17.00;15.67;;;;;;;;5097102;27;45484;-76
2022/09/10 09:07:57;;;;;;;;;14.67;13.00;;;;;;;;5096838;27;45410;-76
2022/09/10 09:10:29;;;;;;;;;21.67;17.00;;;;;;;;5097399;27;45332;-79
2022/09/10 09:12:54;;;;;;;;;17.33;17.33;;;;;;;;5096688;27;47247;-71
2022/09/10 09:15:25;;;;;;;;;18.00;16.33;;;;;;;;5097371;27;45543;-73
2022/09/10 09:17:50;;;;;;;;;18.33;18.33;;;;;;;;5096665;27;45480;-73
2022/09/10 09:20:17;;;;;;;;;20.33;18.00;;;;;;;;5097339;27;45396;-75
2022/09/10 09:22:42;;;;;;;;;19.00;16.00;;;;;;;;5096914;27;45715;-80
2022/09/10 09:25:19;;;;;;;;;10.67;10.33;;;;;;;;5097171;27;45382;-77
2022/09/10 09:27:46;;;;;;;;;10.33;10.33;;;;;;;;5097300;27;45444;-78
2022/09/10 09:30:15;;;;;;;;;23.33;20.33;;;;;;;;5097775;27;45343;-72
2022/09/10 09:32:43;;;;;;;;;9.33;9.33;;;;;;;;5097079;27;45367;-83
2022/09/10 09:35:27;;;;;;;;;15.00;12.33;;;;;;;;5097903;27;45387;-78
2022/09/10 09:38:18;;;;;;;;;13.33;12.33;;;;;;;;5117754;27;45412;-76
2022/09/10 09:40:57;;;;;;;;;13.67;13.67;;;;;;;;5114968;27;45388;-72
2022/09/10 09:43:28;;;;;;;;;16.00;14.33;;;;;;;;5119411;27;46772;-73
2022/09/10 09:45:54;;;;;;;;;14.00;14.00;;;;;;;;5121223;27;45296;-71
2022/09/10 09:48:21;;;;;;;;;13.33;12.33;;;;;;;;5121356;27;45309;-75
2022/09/10 09:50:52;;;;;;;;;15.33;13.33;;;;;;;;5121321;27;45207;-74
2022/09/10 09:53:24;;;;;;;;;15.67;14.33;;;;;;;;5109607;27;46259;-72
2022/09/10 09:55:52;;;;;;;;;15.33;14.33;;;;;;;;5100412;27;45306;-78
2022/09/10 09:58:20;;;;;;;;;19.67;16.67;;;;;;;;5100474;27;45457;-74
2022/09/10 10:00:52;;;;;;;;;15.00;14.33;;;;;;;;5100129;27;45245;-73
2022/09/10 10:03:25;;;;;;;;;67.00;48.00;;;;;;;;5100002;27;46844;-72
2022/09/10 10:05:59;;;;;;;;;17.67;13.00;;;;;;;;5100167;27;45319;-72
2022/09/10 10:08:27;;;;;;;;;14.33;13.33;;;;;;;;5099783;27;45909;-69
2022/09/10 10:10:53;;;;;;;;;13.67;12.00;;;;;;;;5098893;27;45454;-72
2022/09/10 10:13:22;;;;;;;;;13.67;11.00;;;;;;;;5099137;27;46858;-80
2022/09/10 10:15:47;;;;;;;;;7.67;6.67;;;;;;;;5099398;27;45540;-77
2022/09/10 10:18:21;;;;;;;;;12.33;10.67;;;;;;;;5099407;27;45339;-74
2022/09/10 10:21:07;;;;;;;;;12.67;9.33;;;;;;;;5099882;27;45523;-74
2022/09/10 10:23:36;;;;;;;;;12.67;9.67;;;;;;;;5099385;27;45454;-78
2022/09/10 10:26:17;;;;;;;;;10.00;8.67;;;;;;;;5109138;27;45231;-74
2022/09/10 10:29:05;;;;;;;;;8.67;8.67;;;;;;;;5120558;27;45403;-84
2022/09/10 10:31:33;;;;;;;;;12.67;11.00;;;;;;;;5111944;27;45512;-82
2022/09/10 10:34:08;;;;;;;;;11.00;9.33;;;;;;;;5120277;27;46236;-72
2022/09/10 10:36:37;;;;;;;;;9.67;8.67;;;;;;;;5120508;27;45350;-72
2022/09/10 10:39:18;;;;;;;;;16.67;13.33;;;;;;;;5120181;27;45625;-72
2022/09/10 10:41:55;;;;;;;;;8.33;8.00;;;;;;;;5120355;27;45560;-70
2022/09/10 10:44:23;;;;;;;;;10.33;8.00;;;;;;;;5101330;27;45575;-75
2022/09/10 10:46:57;;;;;;;;;12.00;9.00;;;;;;;;5099504;27;45426;-75
2022/09/10 10:49:32;;;;;;;;;11.00;9.00;;;;;;;;5099724;27;45460;-73
2022/09/10 10:52:11;;;;;;;;;7.67;7.67;;;;;;;;5099456;27;45365;-68
2022/09/10 10:54:42;;;;;;;;;7.00;6.00;;;;;;;;5098680;27;46340;-68
2022/09/10 10:57:10;;;;;;;;;7.33;6.33;;;;;;;;5099282;27;45647;-71
2022/09/10 10:59:35;;;;;;;;;11.33;9.33;;;;;;;;5099282;27;45458;-69
2022/09/10 11:02:12;;;;;;;;;11.67;10.67;;;;;;;;5099496;27;45415;-72
2022/09/10 11:04:45;;;;;;;;;11.67;11.33;;;;;;;;5099334;27;45445;-73
2022/09/10 11:07:18;;;;;;;;;12.00;9.00;;;;;;;;5098666;27;45512;-69
2022/09/10 11:10:10;;;;;;;;;11.67;10.00;;;;;;;;5099116;27;45489;-70
2022/09/10 11:12:40;;;;;;;;;11.00;11.00;;;;;;;;5099141;27;45158;-71
2022/09/10 11:15:17;;;;;;;;;12.00;10.67;;;;;;;;5100866;27;46191;-73
2022/09/10 11:18:12;;;;;;;;;7.67;7.33;;;;;;;;5120002;27;45248;-75
2022/09/10 11:20:41;;;;;;;;;32.00;29.00;;;;;;;;5056210;28;45325;-70
2022/09/10 11:23:14;;;;;;;;;11.33;8.33;;;;;;;;5056249;28;45370;-72
2022/09/10 11:25:47;;;;;;;;;10.00;10.00;;;;;;;;5055835;28;46013;-78
2022/09/10 11:28:15;;;;;;;;;12.00;9.67;;;;;;;;5055774;28;45342;-71
2022/09/10 11:30:43;;;;;;;;;10.67;9.00;;;;;;;;5055027;28;45212;-72
2022/09/10 11:33:08;;;;;;;;;8.00;7.00;;;;;;;;5055959;28;45481;-72
2022/09/10 11:35:39;;;;;;;;;8.00;8.00;;;;;;;;5055936;28;46225;-72
2022/09/10 11:38:06;;;;;;;;;10.67;9.67;;;;;;;;5055855;28;45381;-71
2022/09/10 11:40:45;;;;;;;;;6.00;5.00;;;;;;;;5055706;28;45842;-71
2022/09/10 11:43:13;;;;;;;;;10.00;7.67;;;;;;;;5055639;28;45469;-72
2022/09/10 11:45:38;;;;;;;;;12.00;10.67;;;;;;;;5055658;28;46250;-74
2022/09/10 11:48:27;;;;;;;;;9.67;9.67;;;;;;;;5054603;28;45350;-74
2022/09/10 11:50:56;;;;;;;;;10.33;10.33;;;;;;;;4995711;28;45368;-74
2022/09/10 11:53:23;;;;;;;;;9.67;8.33;;;;;;;;4995829;28;45315;-74
2022/09/10 11:56:11;;;;;;;;;11.33;10.00;;;;;;;;4995722;28;47175;-74
2022/09/10 11:58:55;;;;;;;;;8.33;7.67;;;;;;;;5036155;28;45400;-75
2022/09/10 12:01:20;;;;;;;;;10.33;9.00;;;;;;;;5034799;28;45318;-73
2022/09/10 12:04:08;;;;;;;;;11.00;9.00;;;;;;;;5035343;28;45479;-73
2022/09/10 12:06:41;;;;;;;;;9.33;8.33;;;;;;;;4994294;28;45562;-73
2022/09/10 12:09:25;;;;;;;;;7.67;7.33;;;;;;;;4995070;28;45635;-73
2022/09/10 12:12:03;;;;;;;;;12.33;9.33;;;;;;;;4995289;28;45442;-72
2022/09/10 12:14:29;;;;;;;;;9.67;7.33;;;;;;;;4995837;28;45450;-73
2022/09/10 12:17:02;;;;;;;;;9.00;7.00;;;;;;;;4995182;28;45550;-73
2022/09/10 12:19:36;;;;;;;;;11.67;9.00;;;;;;;;4995683;28;45377;-73
2022/09/10 12:22:03;;;;;;;;;8.00;7.33;;;;;;;;4991421;28;45316;-73
2022/09/10 12:24:36;;;;;;;;;7.67;7.67;;;;;;;;4975733;28;45420;-73
2022/09/10 12:27:04;;;;;;;;;8.33;7.33;;;;;;;;4977971;28;46700;-73
2022/09/10 12:29:36;;;;;;;;;8.00;8.00;;;;;;;;4995330;28;45385;-72
2022/09/10 12:32:07;;;;;;;;;6.67;5.33;;;;;;;;4995300;28;45935;-73
2022/09/10 12:34:34;;;;;;;;;9.67;8.33;;;;;;;;4995220;28;45489;-74
2022/09/10 12:36:59;;;;;;;;;9.67;9.67;;;;;;;;4994751;28;46824;-73
2022/09/10 12:39:25;;;;;;;;;11.00;7.00;;;;;;;;4995717;28;45791;-73
2022/09/10 12:41:51;;;;;;;;;7.67;7.67;;;;;;;;5013351;28;45721;-74
2022/09/10 12:44:25;;;;;;;;;7.67;6.33;;;;;;;;5081233;27;45307;-75
2022/09/10 12:47:12;;;;;;;;;8.00;8.00;;;;;;;;5099237;27;45359;-75
2022/09/10 12:49:56;;;;;;;;;7.00;7.00;;;;;;;;5054643;28;45632;-75
2022/09/10 12:52:21;;;;;;;;;8.00;6.00;;;;;;;;5054283;28;45368;-75
2022/09/10 12:55:01;;;;;;;;;7.33;7.33;;;;;;;;5054840;28;45549;-75
2022/09/10 12:57:35;;;;;;;;;7.67;7.00;;;;;;;;5054739;28;45654;-74
2022/09/10 13:00:11;;;;;;;;;8.33;6.00;;;;;;;;5045934;28;45527;-74
2022/09/10 13:02:57;;;;;;;;;10.00;9.00;;;;;;;;5054624;28;45289;-75
2022/09/10 13:05:30;;;;;;;;;8.00;8.00;;;;;;;;5054467;28;45574;-74
2022/09/10 13:07:59;;;;;;;;;16.00;6.67;;;;;;;;5053876;28;45591;-74
2022/09/10 13:10:25;;;;;;;;;5.00;5.00;;;;;;;;5054054;28;45465;-74
2022/09/10 13:12:54;;;;;;;;;7.00;7.00;;;;;;;;5054238;28;45501;-74
2022/09/10 13:15:22;;;;;;;;;8.33;8.33;;;;;;;;5053567;28;45496;-74
2022/09/10 13:17:49;;;;;;;;;8.33;7.00;;;;;;;;5055528;28;47460;-74
2022/09/10 13:20:18;;;;;;;;;5.67;5.67;;;;;;;;5057557;28;45409;-74
2022/09/10 13:23:00;;;;;;;;;9.33;6.67;;;;;;;;5058240;28;45491;-74
2022/09/10 13:25:31;;;;;;;;;6.67;6.67;;;;;;;;5058012;28;45198;-74
2022/09/10 13:27:56;;;;;;;;;10.00;7.67;;;;;;;;5100340;27;47310;-74
2022/09/10 13:30:22;;;;;;;;;8.33;7.67;;;;;;;;5100622;27;45703;-74
2022/09/10 13:32:55;;;;;;;;;6.33;6.00;;;;;;;;5100621;27;45441;-74
2022/09/10 13:35:40;;;;;;;;;5.00;5.00;;;;;;;;5100816;27;45453;-75
2022/09/10 13:38:08;;;;;;;;;4.00;3.00;;;;;;;;5100487;27;45445;-74
2022/09/10 13:40:36;;;;;;;;;4.67;4.67;;;;;;;;5100235;27;45234;-74
2022/09/10 13:43:01;;;;;;;;;7.33;5.67;;;;;;;;5100597;27;45580;-73
2022/09/10 13:45:40;;;;;;;;;5.00;5.00;;;;;;;;5100960;27;45565;-69
2022/09/10 13:48:08;;;;;;;;;8.67;6.33;;;;;;;;5100383;27;45600;-69
2022/09/10 13:50:37;;;;;;;;;4.67;4.67;;;;;;;;5113920;27;45303;-69
2022/09/10 13:53:03;;;;;;;;;6.67;6.33;;;;;;;;5121167;27;45378;-69
2022/09/10 13:55:30;;;;;;;;;5.00;5.00;;;;;;;;5121303;27;45429;-69
2022/09/10 13:58:12;;;;;;;;;7.00;7.00;;;;;;;;5121021;27;45354;-69
2022/09/10 14:00:48;;;;;;;;;3.33;3.33;;;;;;;;5120897;27;45449;-68
2022/09/10 14:03:15;;;;;;;;;4.67;3.00;;;;;;;;5120758;27;45490;-68
2022/09/10 14:05:47;;;;;;;;;3.00;3.00;;;;;;;;5119806;27;45510;-68
2022/09/10 14:08:20;;;;;;;;;4.00;4.00;;;;;;;;5120421;27;46521;-68
2022/09/10 14:10:48;;;;;;;;;4.33;3.33;;;;;;;;5120609;27;45518;-68
2022/09/10 14:13:15;;;;;;;;;4.00;4.00;;;;;;;;5120907;27;45450;-69
2022/09/10 14:15:40;;;;;;;;;2.00;2.00;;;;;;;;5121030;27;45632;-68
2022/09/10 14:18:07;;;;;;;;;3.33;2.67;;;;;;;;5120630;27;45569;-68
2022/09/10 14:20:33;;;;;;;;;3.00;2.33;;;;;;;;5120885;27;45321;-69
2022/09/10 14:23:00;;;;;;;;;3.00;3.00;;;;;;;;5107415;27;45443;-69
2022/09/10 14:25:30;;;;;;;;;3.67;3.00;;;;;;;;5100380;27;45306;-73
2022/09/10 14:28:09;;;;;;;;;5.33;3.67;;;;;;;;5099711;27;47076;-72
2022/09/10 14:30:35;;;;;;;;;4.00;4.00;;;;;;;;5098838;27;45410;-72
2022/09/10 14:33:18;;;;;;;;;3.00;3.00;;;;;;;;5100254;27;45229;-74
2022/09/10 14:35:44;;;;;;;;;4.33;2.67;;;;;;;;5109608;27;45354;-73
2022/09/10 14:38:22;;;;;;;;;4.33;3.00;;;;;;;;5117547;27;45535;-73
2022/09/10 14:40:48;;;;;;;;;3.00;3.00;;;;;;;;5099656;27;45204;-73
2022/09/10 14:43:14;;;;;;;;;2.67;2.67;;;;;;;;5099801;27;45319;-72